sim
Sign-in with your pilot id or email,
or register
Callsign
Passwort

Schedule Details

Flight Number: OEC512
Departure: London Stansted Airport (EGSS) at Time
Arrival: Munich Airport (EDDM) at Time
Route: CLN4S CLN UM84 KONAN UL607 MATUG DCT RUDUS T109 HAREM T104 ANORA ANOR3A

Weather Information
Getting current METAR information for EGSS 201950Z AUTO 04007KT 9999 NCD 15/12 Q1020
Getting current METAR information for EDDM 201950Z 29001KT CAVOK 11/10 Q1016 NOSIG

Schedule Frequency

Route Map